createdAt,value
2022-11-01T00:05:17.401Z,19.81
2022-11-01T00:10:39.056Z,19.80
2022-11-01T00:16:00.796Z,19.79
2022-11-01T00:21:22.615Z,19.77
2022-11-01T00:26:44.391Z,19.76
2022-11-01T00:32:07.074Z,19.74
2022-11-01T00:37:29.795Z,19.74
2022-11-01T00:42:51.451Z,19.75
2022-11-01T00:48:13.677Z,19.73
2022-11-01T00:53:35.327Z,19.71
2022-11-01T00:58:56.978Z,19.69
2022-11-01T01:04:18.733Z,19.68
2022-11-01T01:09:40.362Z,19.69
2022-11-01T01:15:02.491Z,19.68
2022-11-01T01:20:24.513Z,19.66
2022-11-01T01:25:46.208Z,19.65
2022-11-01T01:31:09.046Z,19.64
2022-11-01T01:36:30.828Z,19.63
2022-11-01T01:41:58.087Z,19.64
2022-11-01T01:47:28.969Z,19.63
2022-11-01T01:53:02.927Z,19.64
2022-11-01T01:58:30.725Z,19.60
2022-11-01T02:03:52.778Z,19.61
2022-11-01T02:09:16.374Z,19.61
2022-11-01T02:14:40.693Z,19.62
2022-11-01T02:20:14.208Z,19.62
2022-11-01T02:26:12.752Z,19.60
2022-11-01T02:31:52.747Z,19.57
2022-11-01T02:37:27.909Z,19.59
2022-11-01T02:42:56.263Z,19.57
2022-11-01T02:48:23.739Z,19.57
2022-11-01T02:53:45.462Z,19.55
2022-11-01T02:59:16.759Z,19.55
2022-11-01T03:04:38.808Z,19.53
2022-11-01T03:10:02.006Z,19.53
2022-11-01T03:15:29.392Z,19.52
2022-11-01T03:21:00.083Z,19.52
2022-11-01T03:26:26.913Z,19.51
2022-11-01T03:31:50.594Z,19.51
2022-11-01T03:37:13.466Z,19.50
2022-11-01T03:42:38.052Z,19.51
2022-11-01T03:48:01.559Z,19.51
2022-11-01T03:53:24.302Z,19.50
2022-11-01T03:58:46.389Z,19.50
2022-11-01T04:04:08.025Z,19.49
2022-11-01T04:09:29.645Z,19.47
2022-11-01T04:15:09.537Z,19.48
2022-11-01T04:20:34.834Z,19.48
2022-11-01T04:25:56.607Z,19.47
2022-11-01T04:31:18.327Z,19.47
2022-11-01T04:36:40.128Z,19.46
2022-11-01T04:42:01.839Z,19.47
2022-11-01T04:47:23.476Z,19.46
2022-11-01T04:52:45.131Z,19.46
2022-11-01T04:58:06.932Z,19.45
2022-11-01T05:03:28.591Z,19.44
2022-11-01T05:08:50.182Z,19.43
2022-11-01T05:14:11.932Z,19.41
2022-11-01T05:19:33.727Z,19.41
2022-11-01T05:24:55.457Z,19.40
2022-11-01T05:30:17.276Z,19.41
2022-11-01T05:35:38.949Z,19.39
2022-11-01T05:41:03.602Z,19.41
2022-11-01T05:46:25.399Z,19.38
2022-11-01T05:51:47.076Z,19.37
2022-11-01T05:57:08.912Z,19.36
2022-11-01T06:02:33.605Z,19.37
2022-11-01T06:07:56.020Z,19.35
2022-11-01T06:13:18.001Z,19.34
2022-11-01T06:18:39.669Z,19.33
2022-11-01T06:24:01.307Z,19.32
2022-11-01T06:29:22.988Z,19.32
2022-11-01T06:34:45.092Z,19.32
2022-11-01T06:40:07.598Z,19.31
2022-11-01T06:45:30.328Z,19.30
2022-11-01T06:50:53.955Z,19.29
2022-11-01T06:56:15.669Z,19.30
2022-11-01T07:01:37.441Z,19.47
2022-11-01T07:06:59.690Z,19.48
2022-11-01T07:12:21.366Z,19.44
2022-11-01T07:17:43.989Z,19.44
2022-11-01T07:23:06.202Z,19.46
2022-11-01T07:28:28.804Z,19.48
2022-11-01T07:33:50.483Z,19.51
2022-11-01T07:39:13.024Z,19.53
2022-11-01T07:44:34.679Z,19.56
2022-11-01T07:49:56.342Z,19.59
2022-11-01T07:55:18.190Z,19.60
2022-11-01T08:00:40.983Z,19.63
2022-11-01T08:06:02.641Z,19.66
2022-11-01T08:11:24.326Z,19.68
2022-11-01T08:16:49.792Z,19.80
2022-11-01T08:22:11.389Z,21.19
2022-11-01T08:27:34.589Z,22.31
2022-11-01T08:33:04.978Z,21.43
2022-11-01T08:38:27.479Z,20.98
2022-11-01T08:43:49.380Z,20.67
2022-11-01T08:49:12.435Z,20.48
2022-11-01T08:54:34.506Z,20.36
2022-11-01T08:59:56.126Z,20.27
2022-11-01T09:05:18.132Z,20.21
2022-11-01T09:10:39.935Z,20.14
2022-11-01T09:16:08.254Z,20.05
2022-11-01T09:21:31.731Z,19.94
2022-11-01T09:26:54.035Z,19.86
2022-11-01T09:32:15.855Z,19.84
2022-11-01T09:37:37.592Z,19.84
2022-11-01T09:43:01.940Z,19.83
2022-11-01T09:48:25.689Z,19.83
2022-11-01T09:53:50.080Z,19.82
2022-11-01T09:59:37.835Z,19.82
2022-11-01T10:05:18.843Z,19.81
2022-11-01T10:11:02.794Z,19.81
2022-11-01T10:16:37.672Z,19.80
2022-11-01T10:22:12.561Z,19.82
2022-11-01T10:28:14.167Z,19.83
2022-11-01T10:33:39.933Z,19.84
2022-11-01T10:45:15.419Z,19.82
2022-11-01T10:50:38.473Z,19.80
2022-11-01T10:56:06.085Z,19.80
2022-11-01T11:01:31.952Z,19.80
2022-11-01T11:06:53.769Z,19.81
2022-11-01T11:12:19.134Z,19.84
2022-11-01T11:17:45.122Z,19.83
2022-11-01T11:23:10.842Z,19.82
2022-11-01T11:28:36.028Z,19.82
2022-11-01T11:34:02.920Z,19.84
2022-11-01T11:39:29.837Z,19.93
2022-11-01T11:44:56.932Z,20.01
2022-11-01T11:50:21.629Z,20.05
2022-11-01T11:55:48.231Z,20.07
2022-11-01T12:01:21.294Z,20.10
2022-11-01T12:06:46.739Z,20.10
2022-11-01T12:12:17.366Z,20.10
2022-11-01T12:17:47.026Z,20.07
2022-11-01T12:23:27.312Z,20.05
2022-11-01T12:28:58.691Z,20.03
2022-11-01T12:34:32.211Z,20.03
2022-11-01T12:40:13.141Z,19.99
2022-11-01T12:45:42.203Z,19.97
2022-11-01T12:51:10.359Z,19.94
2022-11-01T12:56:32.715Z,19.89
2022-11-01T13:02:24.529Z,19.86
2022-11-01T13:07:55.956Z,19.84
2022-11-01T13:13:33.646Z,19.81
2022-11-01T13:19:10.741Z,19.80
2022-11-01T13:24:57.297Z,19.76
2022-11-01T13:30:20.043Z,19.73
2022-11-01T13:35:57.657Z,19.75
2022-11-01T13:41:26.758Z,19.74
2022-11-01T13:47:08.404Z,19.73
2022-11-01T13:52:33.958Z,19.72
2022-11-01T13:57:55.582Z,19.68
2022-11-01T14:03:22.022Z,19.71
2022-11-01T14:08:47.282Z,19.69
2022-11-01T14:14:30.701Z,19.72
2022-11-01T14:19:55.884Z,19.70
2022-11-01T14:25:17.583Z,19.69
2022-11-01T14:30:42.890Z,19.68
2022-11-01T14:36:06.992Z,19.69
2022-11-01T14:41:32.778Z,19.69
2022-11-01T14:46:58.177Z,19.69
2022-11-01T14:52:31.317Z,19.72
2022-11-01T14:58:16.181Z,19.71
2022-11-01T15:03:37.899Z,19.68
2022-11-01T15:09:03.021Z,19.68
2022-11-01T15:14:35.809Z,19.67
2022-11-01T15:19:58.776Z,19.67
2022-11-01T15:25:24.022Z,19.67
2022-11-01T15:30:55.166Z,19.66
2022-11-01T15:36:28.380Z,19.64
2022-11-01T15:41:51.252Z,19.62
2022-11-01T15:47:18.621Z,19.62
2022-11-01T15:52:40.426Z,19.60
2022-11-01T15:58:10.800Z,19.60
2022-11-01T16:03:55.754Z,19.59
2022-11-01T16:09:24.002Z,19.57
2022-11-01T16:14:58.901Z,19.55
2022-11-01T16:20:34.205Z,19.55
2022-11-01T16:26:07.506Z,19.55
2022-11-01T16:31:30.892Z,19.52
2022-11-01T16:36:52.950Z,19.52
2022-11-01T16:42:16.112Z,19.55
2022-11-01T16:47:37.916Z,19.59
2022-11-01T16:52:59.592Z,19.63
2022-11-01T16:58:25.000Z,19.69
2022-11-01T17:03:47.484Z,19.73
2022-11-01T17:09:14.408Z,19.73
2022-11-01T17:14:37.718Z,19.69
2022-11-01T17:20:02.054Z,19.67
2022-11-01T17:25:27.958Z,19.66
2022-11-01T17:30:49.592Z,19.64
2022-11-01T17:36:15.610Z,19.63
2022-11-01T17:41:37.692Z,19.62
2022-11-01T17:46:59.836Z,19.63
2022-11-01T17:52:21.587Z,19.63
2022-11-01T17:57:46.571Z,19.62
2022-11-01T18:03:14.918Z,19.60
2022-11-01T18:08:43.733Z,19.60
2022-11-01T18:14:20.739Z,19.58
2022-11-01T18:19:48.317Z,19.56
2022-11-01T18:25:31.850Z,19.57
2022-11-01T18:30:59.032Z,19.69
2022-11-01T18:36:32.946Z,19.94
2022-11-01T18:41:55.115Z,20.28
2022-11-01T18:47:28.976Z,20.67
2022-11-01T18:53:06.085Z,20.96
2022-11-01T18:58:29.865Z,21.06
2022-11-01T19:04:27.807Z,21.10
2022-11-01T19:09:53.652Z,21.07
2022-11-01T19:15:23.292Z,21.02
2022-11-01T19:20:53.119Z,20.95
2022-11-01T19:26:26.162Z,20.89
2022-11-01T19:31:56.129Z,20.82
2022-11-01T19:37:40.936Z,20.76
2022-11-01T19:43:28.650Z,20.69
2022-11-01T19:48:52.319Z,20.64
2022-11-01T19:54:14.270Z,20.62
2022-11-01T19:59:38.087Z,20.60
2022-11-01T20:05:00.430Z,20.59
2022-11-01T20:10:22.123Z,20.57
2022-11-01T20:15:44.443Z,20.57
2022-11-01T20:21:06.548Z,20.62
2022-11-01T20:26:28.235Z,20.66
2022-11-01T20:31:50.104Z,20.70
2022-11-01T20:37:28.732Z,20.73
2022-11-01T20:42:52.386Z,20.77
2022-11-01T20:48:14.185Z,20.79
2022-11-01T20:53:35.847Z,20.80
2022-11-01T20:58:57.559Z,20.81
2022-11-01T21:04:19.495Z,20.81
2022-11-01T21:09:46.852Z,20.82
2022-11-01T21:15:35.859Z,20.84
2022-11-01T21:20:59.187Z,20.81
2022-11-01T21:26:23.498Z,20.77
2022-11-01T21:31:45.344Z,20.71
2022-11-01T21:37:09.062Z,20.66
2022-11-01T21:42:35.788Z,20.59
2022-11-01T21:48:19.759Z,20.53
2022-11-01T21:53:41.412Z,20.47
2022-11-01T21:59:03.152Z,20.43
2022-11-01T22:04:28.762Z,20.39
2022-11-01T22:09:50.774Z,20.37
2022-11-01T22:15:12.657Z,20.32
2022-11-01T22:20:34.314Z,20.28
2022-11-01T22:25:55.960Z,20.23
2022-11-01T22:31:18.524Z,20.20
2022-11-01T22:36:41.995Z,20.18
2022-11-01T22:42:06.000Z,20.14
2022-11-01T22:47:29.553Z,20.12
2022-11-01T22:52:51.288Z,20.09
2022-11-01T22:58:24.816Z,20.07
2022-11-01T23:03:46.677Z,20.03
2022-11-01T23:09:19.175Z,20.02
2022-11-01T23:14:45.701Z,20.01
2022-11-01T23:20:09.533Z,19.98
2022-11-01T23:25:32.776Z,19.95
2022-11-01T23:30:55.289Z,19.94
2022-11-01T23:36:24.963Z,19.92
2022-11-01T23:41:53.196Z,19.90
2022-11-01T23:47:32.397Z,19.89
2022-11-01T23:53:04.475Z,19.87
